sensor_id;sensor_type;location;lat;lon;timestamp;P1;durP1;ratioP1;P2;durP2;ratioP2
53915;SDS011;39827;49.652;18.770;2023-06-19T00:01:58;1115.22;;;997.80;;
53915;SDS011;39827;49.652;18.770;2023-06-19T00:04:24;1081.70;;;977.03;;
53915;SDS011;39827;49.652;18.770;2023-06-19T00:06:51;1076.70;;;968.65;;
53915;SDS011;39827;49.652;18.770;2023-06-19T00:09:17;1108.07;;;991.47;;
53915;SDS011;39827;49.652;18.770;2023-06-19T00:11:43;1104.32;;;992.40;;
53915;SDS011;39827;49.652;18.770;2023-06-19T00:14:08;1113.32;;;996.55;;
53915;SDS011;39827;49.652;18.770;2023-06-19T00:16:34;1111.35;;;991.80;;
53915;SDS011;39827;49.652;18.770;2023-06-19T00:18:59;1101.63;;;987.20;;
53915;SDS011;39827;49.652;18.770;2023-06-19T00:21:25;1082.53;;;973.95;;
53915;SDS011;39827;49.652;18.770;2023-06-19T00:23:51;1072.10;;;963.00;;
53915;SDS011;39827;49.652;18.770;2023-06-19T00:26:17;1065.35;;;958.20;;
53915;SDS011;39827;49.652;18.770;2023-06-19T00:28:44;1057.93;;;949.03;;
53915;SDS011;39827;49.652;18.770;2023-06-19T00:31:12;1062.43;;;957.45;;
53915;SDS011;39827;49.652;18.770;2023-06-19T00:33:39;1033.20;;;931.95;;
53915;SDS011;39827;49.652;18.770;2023-06-19T00:36:11;1043.55;;;945.45;;
53915;SDS011;39827;49.652;18.770;2023-06-19T00:38:39;1011.47;;;912.00;;
53915;SDS011;39827;49.652;18.770;2023-06-19T00:41:05;1021.20;;;921.75;;
53915;SDS011;39827;49.652;18.770;2023-06-19T00:43:31;1059.47;;;950.90;;
53915;SDS011;39827;49.652;18.770;2023-06-19T00:46:00;1061.50;;;952.15;;
53915;SDS011;39827;49.652;18.770;2023-06-19T00:48:29;1065.53;;;953.75;;
53915;SDS011;39827;49.652;18.770;2023-06-19T00:50:56;1082.72;;;970.72;;
53915;SDS011;39827;49.652;18.770;2023-06-19T00:53:23;1059.53;;;952.53;;
53915;SDS011;39827;49.652;18.770;2023-06-19T00:55:50;1101.10;;;986.17;;
53915;SDS011;39827;49.652;18.770;2023-06-19T00:58:25;1113.38;;;994.83;;
53915;SDS011;39827;49.652;18.770;2023-06-19T01:00:51;1044.22;;;938.97;;
53915;SDS011;39827;49.652;18.770;2023-06-19T01:03:17;1040.95;;;936.58;;
53915;SDS011;39827;49.652;18.770;2023-06-19T01:05:42;1082.05;;;973.40;;
53915;SDS011;39827;49.652;18.770;2023-06-19T01:11:08;1037.93;;;934.22;;
53915;SDS011;39827;49.652;18.770;2023-06-19T01:13:44;1066.70;;;957.25;;
53915;SDS011;39827;49.652;18.770;2023-06-19T01:16:12;1088.43;;;975.45;;
53915;SDS011;39827;49.652;18.770;2023-06-19T01:18:38;1087.82;;;976.17;;
53915;SDS011;39827;49.652;18.770;2023-06-19T01:21:11;1102.53;;;987.20;;
53915;SDS011;39827;49.652;18.770;2023-06-19T01:23:37;1077.93;;;963.40;;
53915;SDS011;39827;49.652;18.770;2023-06-19T01:26:02;1110.72;;;992.22;;
53915;SDS011;39827;49.652;18.770;2023-06-19T01:28:28;1128.18;;;999.40;;
53915;SDS011;39827;49.652;18.770;2023-06-19T01:30:53;1103.38;;;981.78;;
53915;SDS011;39827;49.652;18.770;2023-06-19T01:33:25;1157.22;;;999.03;;
53915;SDS011;39827;49.652;18.770;2023-06-19T01:35:53;1111.40;;;981.33;;
53915;SDS011;39827;49.652;18.770;2023-06-19T01:38:21;1117.78;;;996.50;;
53915;SDS011;39827;49.652;18.770;2023-06-19T01:40:51;1087.38;;;970.17;;
53915;SDS011;39827;49.652;18.770;2023-06-19T01:43:17;1153.55;;;999.90;;
53915;SDS011;39827;49.652;18.770;2023-06-19T01:45:44;1129.10;;;990.42;;
53915;SDS011;39827;49.652;18.770;2023-06-19T01:48:10;1118.38;;;985.50;;
53915;SDS011;39827;49.652;18.770;2023-06-19T01:50:35;1135.78;;;999.90;;
53915;SDS011;39827;49.652;18.770;2023-06-19T01:53:01;1138.18;;;999.90;;
53915;SDS011;39827;49.652;18.770;2023-06-19T01:55:26;1102.32;;;979.80;;
53915;SDS011;39827;49.652;18.770;2023-06-19T01:57:51;1171.40;;;999.90;;
53915;SDS011;39827;49.652;18.770;2023-06-19T02:00:17;1209.68;;;999.90;;
53915;SDS011;39827;49.652;18.770;2023-06-19T02:02:43;1159.05;;;999.90;;
53915;SDS011;39827;49.652;18.770;2023-06-19T02:05:08;1128.28;;;993.25;;
53915;SDS011;39827;49.652;18.770;2023-06-19T02:07:34;1125.57;;;998.92;;
53915;SDS011;39827;49.652;18.770;2023-06-19T02:09:59;1100.75;;;979.80;;
53915;SDS011;39827;49.652;18.770;2023-06-19T02:12:25;1104.82;;;984.50;;
53915;SDS011;39827;49.652;18.770;2023-06-19T02:14:50;1131.45;;;999.90;;
53915;SDS011;39827;49.652;18.770;2023-06-19T02:17:16;1122.57;;;999.90;;
53915;SDS011;39827;49.652;18.770;2023-06-19T02:19:41;1121.82;;;998.95;;
53915;SDS011;39827;49.652;18.770;2023-06-19T02:22:07;1112.25;;;993.75;;
53915;SDS011;39827;49.652;18.770;2023-06-19T02:24:33;1105.22;;;985.55;;
53915;SDS011;39827;49.652;18.770;2023-06-19T02:26:58;1088.30;;;981.33;;
53915;SDS011;39827;49.652;18.770;2023-06-19T02:29:24;1100.35;;;985.58;;
53915;SDS011;39827;49.652;18.770;2023-06-19T02:31:50;1077.45;;;972.58;;
53915;SDS011;39827;49.652;18.770;2023-06-19T02:34:15;1066.45;;;958.75;;
53915;SDS011;39827;49.652;18.770;2023-06-19T02:36:41;1043.70;;;946.22;;
53915;SDS011;39827;49.652;18.770;2023-06-19T02:39:07;1034.03;;;938.20;;
53915;SDS011;39827;49.652;18.770;2023-06-19T02:41:33;1001.63;;;908.45;;
53915;SDS011;39827;49.652;18.770;2023-06-19T02:43:59;1033.00;;;934.30;;
53915;SDS011;39827;49.652;18.770;2023-06-19T02:46:24;1041.25;;;939.65;;
53915;SDS011;39827;49.652;18.770;2023-06-19T02:48:49;1059.13;;;954.35;;
53915;SDS011;39827;49.652;18.770;2023-06-19T02:51:15;1026.93;;;932.05;;
53915;SDS011;39827;49.652;18.770;2023-06-19T02:53:40;1050.32;;;951.97;;
53915;SDS011;39827;49.652;18.770;2023-06-19T02:56:06;1024.38;;;923.28;;
53915;SDS011;39827;49.652;18.770;2023-06-19T02:58:32;1053.28;;;947.33;;
53915;SDS011;39827;49.652;18.770;2023-06-19T03:00:59;1052.85;;;946.50;;
53915;SDS011;39827;49.652;18.770;2023-06-19T03:03:25;1062.15;;;954.75;;
53915;SDS011;39827;49.652;18.770;2023-06-19T03:05:50;1043.80;;;943.53;;
53915;SDS011;39827;49.652;18.770;2023-06-19T03:08:16;1025.18;;;925.47;;
53915;SDS011;39827;49.652;18.770;2023-06-19T03:10:41;1043.95;;;941.95;;
53915;SDS011;39827;49.652;18.770;2023-06-19T03:13:06;1044.68;;;942.75;;
53915;SDS011;39827;49.652;18.770;2023-06-19T03:15:32;1075.88;;;966.00;;
53915;SDS011;39827;49.652;18.770;2023-06-19T03:17:57;1063.82;;;957.20;;
53915;SDS011;39827;49.652;18.770;2023-06-19T03:20:23;1065.07;;;958.20;;
53915;SDS011;39827;49.652;18.770;2023-06-19T03:22:48;1051.35;;;947.08;;
53915;SDS011;39827;49.652;18.770;2023-06-19T03:25:13;1051.88;;;947.65;;
53915;SDS011;39827;49.652;18.770;2023-06-19T03:27:39;1043.53;;;942.78;;
53915;SDS011;39827;49.652;18.770;2023-06-19T03:30:05;1036.88;;;935.30;;
53915;SDS011;39827;49.652;18.770;2023-06-19T03:32:34;1056.22;;;950.95;;
53915;SDS011;39827;49.652;18.770;2023-06-19T03:35:01;1053.05;;;948.08;;
53915;SDS011;39827;49.652;18.770;2023-06-19T03:37:27;1059.93;;;954.17;;
53915;SDS011;39827;49.652;18.770;2023-06-19T03:39:52;1031.03;;;931.13;;
53915;SDS011;39827;49.652;18.770;2023-06-19T03:42:18;1057.15;;;952.25;;
53915;SDS011;39827;49.652;18.770;2023-06-19T03:44:43;1060.03;;;953.92;;
53915;SDS011;39827;49.652;18.770;2023-06-19T03:47:08;1029.30;;;930.17;;
53915;SDS011;39827;49.652;18.770;2023-06-19T03:49:34;1021.00;;;922.25;;
53915;SDS011;39827;49.652;18.770;2023-06-19T03:51:59;1033.30;;;934.42;;
53915;SDS011;39827;49.652;18.770;2023-06-19T03:54:25;1024.65;;;926.05;;
53915;SDS011;39827;49.652;18.770;2023-06-19T03:56:51;1021.90;;;925.15;;
53915;SDS011;39827;49.652;18.770;2023-06-19T03:59:17;1045.88;;;943.33;;
53915;SDS011;39827;49.652;18.770;2023-06-19T04:01:42;1011.33;;;915.15;;
53915;SDS011;39827;49.652;18.770;2023-06-19T04:04:08;1042.93;;;942.42;;
53915;SDS011;39827;49.652;18.770;2023-06-19T04:06:33;1045.57;;;943.40;;
53915;SDS011;39827;49.652;18.770;2023-06-19T04:08:59;1026.80;;;929.33;;
53915;SDS011;39827;49.652;18.770;2023-06-19T04:11:24;1004.25;;;909.95;;
53915;SDS011;39827;49.652;18.770;2023-06-19T04:13:49;1044.72;;;943.65;;
53915;SDS011;39827;49.652;18.770;2023-06-19T04:16:15;1020.72;;;924.63;;
53915;SDS011;39827;49.652;18.770;2023-06-19T04:18:40;1047.45;;;945.67;;
53915;SDS011;39827;49.652;18.770;2023-06-19T04:21:06;1053.30;;;950.22;;
53915;SDS011;39827;49.652;18.770;2023-06-19T04:23:32;1055.93;;;952.50;;
53915;SDS011;39827;49.652;18.770;2023-06-19T04:25:57;1072.47;;;965.72;;
53915;SDS011;39827;49.652;18.770;2023-06-19T04:28:23;1047.53;;;945.53;;
53915;SDS011;39827;49.652;18.770;2023-06-19T04:30:48;1051.13;;;948.85;;
53915;SDS011;39827;49.652;18.770;2023-06-19T04:33:14;1058.65;;;954.08;;
53915;SDS011;39827;49.652;18.770;2023-06-19T04:35:39;1054.10;;;951.20;;
53915;SDS011;39827;49.652;18.770;2023-06-19T04:38:05;1054.38;;;951.22;;
53915;SDS011;39827;49.652;18.770;2023-06-19T04:40:31;1048.95;;;946.03;;
53915;SDS011;39827;49.652;18.770;2023-06-19T04:42:57;1052.70;;;948.83;;
53915;SDS011;39827;49.652;18.770;2023-06-19T04:45:23;1059.53;;;954.97;;
53915;SDS011;39827;49.652;18.770;2023-06-19T04:47:48;1060.93;;;954.78;;
53915;SDS011;39827;49.652;18.770;2023-06-19T04:50:13;1082.15;;;970.70;;
53915;SDS011;39827;49.652;18.770;2023-06-19T04:52:40;1077.22;;;968.25;;
53915;SDS011;39827;49.652;18.770;2023-06-19T04:55:06;1090.22;;;976.20;;
53915;SDS011;39827;49.652;18.770;2023-06-19T04:57:34;1097.45;;;981.80;;
53915;SDS011;39827;49.652;18.770;2023-06-19T05:00:02;1109.13;;;989.38;;
53915;SDS011;39827;49.652;18.770;2023-06-19T05:02:32;1150.65;;;999.90;;
53915;SDS011;39827;49.652;18.770;2023-06-19T05:04:58;1181.43;;;999.90;;
53915;SDS011;39827;49.652;18.770;2023-06-19T05:07:28;1157.57;;;999.90;;
53915;SDS011;39827;49.652;18.770;2023-06-19T05:09:56;1198.07;;;999.90;;
53915;SDS011;39827;49.652;18.770;2023-06-19T05:12:22;1140.43;;;999.90;;
53915;SDS011;39827;49.652;18.770;2023-06-19T05:14:47;1123.93;;;997.33;;
53915;SDS011;39827;49.652;18.770;2023-06-19T05:17:13;1126.63;;;998.63;;
53915;SDS011;39827;49.652;18.770;2023-06-19T05:19:39;1162.45;;;999.90;;
53915;SDS011;39827;49.652;18.770;2023-06-19T05:22:04;1140.40;;;999.90;;
53915;SDS011;39827;49.652;18.770;2023-06-19T05:24:30;1105.32;;;986.75;;
53915;SDS011;39827;49.652;18.770;2023-06-19T05:26:55;1110.18;;;992.85;;
53915;SDS011;39827;49.652;18.770;2023-06-19T05:29:21;1102.88;;;985.40;;
53915;SDS011;39827;49.652;18.770;2023-06-19T05:31:46;1108.60;;;991.45;;
53915;SDS011;39827;49.652;18.770;2023-06-19T05:34:12;1105.40;;;988.00;;
53915;SDS011;39827;49.652;18.770;2023-06-19T05:36:38;1086.82;;;974.03;;
53915;SDS011;39827;49.652;18.770;2023-06-19T05:39:03;1071.55;;;960.58;;
53915;SDS011;39827;49.652;18.770;2023-06-19T05:41:29;1066.88;;;957.35;;
53915;SDS011;39827;49.652;18.770;2023-06-19T05:43:56;1069.78;;;961.42;;
53915;SDS011;39827;49.652;18.770;2023-06-19T05:46:21;1070.38;;;960.17;;
53915;SDS011;39827;49.652;18.770;2023-06-19T05:48:47;1083.57;;;973.58;;
53915;SDS011;39827;49.652;18.770;2023-06-19T05:51:12;1071.97;;;965.15;;
53915;SDS011;39827;49.652;18.770;2023-06-19T05:53:38;1046.25;;;944.42;;
53915;SDS011;39827;49.652;18.770;2023-06-19T05:56:04;1039.13;;;938.33;;
53915;SDS011;39827;49.652;18.770;2023-06-19T05:58:30;1026.15;;;928.13;;
53915;SDS011;39827;49.652;18.770;2023-06-19T06:00:56;1021.83;;;924.63;;
53915;SDS011;39827;49.652;18.770;2023-06-19T06:03:26;1018.78;;;922.15;;
53915;SDS011;39827;49.652;18.770;2023-06-19T06:05:52;998.42;;;906.13;;
53915;SDS011;39827;49.652;18.770;2023-06-19T06:08:18;975.88;;;887.42;;
53915;SDS011;39827;49.652;18.770;2023-06-19T06:10:43;961.80;;;875.78;;
53915;SDS011;39827;49.652;18.770;2023-06-19T06:13:09;970.25;;;883.65;;
53915;SDS011;39827;49.652;18.770;2023-06-19T06:15:34;955.85;;;871.78;;
53915;SDS011;39827;49.652;18.770;2023-06-19T06:18:00;927.10;;;847.75;;
53915;SDS011;39827;49.652;18.770;2023-06-19T06:20:25;876.33;;;804.13;;
53915;SDS011;39827;49.652;18.770;2023-06-19T06:22:51;861.78;;;792.25;;
53915;SDS011;39827;49.652;18.770;2023-06-19T06:25:17;821.45;;;756.58;;
53915;SDS011;39827;49.652;18.770;2023-06-19T06:27:43;800.28;;;738.40;;
53915;SDS011;39827;49.652;18.770;2023-06-19T06:30:09;776.38;;;717.22;;
53915;SDS011;39827;49.652;18.770;2023-06-19T06:32:36;732.80;;;678.08;;
53915;SDS011;39827;49.652;18.770;2023-06-19T06:35:02;709.55;;;656.80;;
53915;SDS011;39827;49.652;18.770;2023-06-19T06:37:27;676.65;;;626.70;;
53915;SDS011;39827;49.652;18.770;2023-06-19T06:39:52;692.15;;;640.80;;
53915;SDS011;39827;49.652;18.770;2023-06-19T06:42:18;695.25;;;643.88;;
53915;SDS011;39827;49.652;18.770;2023-06-19T06:44:44;660.50;;;611.30;;
53915;SDS011;39827;49.652;18.770;2023-06-19T06:47:09;654.35;;;606.47;;
53915;SDS011;39827;49.652;18.770;2023-06-19T06:49:35;233.27;;;218.75;;
53915;SDS011;39827;49.652;18.770;2023-06-19T06:52:01;243.63;;;227.23;;
53915;SDS011;39827;49.652;18.770;2023-06-19T06:54:28;179.65;;;168.35;;
53915;SDS011;39827;49.652;18.770;2023-06-19T06:56:54;117.43;;;109.93;;
53915;SDS011;39827;49.652;18.770;2023-06-19T06:59:21;129.45;;;121.43;;
53915;SDS011;39827;49.652;18.770;2023-06-19T07:01:46;105.68;;;98.90;;
53915;SDS011;39827;49.652;18.770;2023-06-19T07:04:12;98.85;;;92.75;;
53915;SDS011;39827;49.652;18.770;2023-06-19T07:06:37;119.63;;;112.20;;
53915;SDS011;39827;49.652;18.770;2023-06-19T07:09:02;125.85;;;117.85;;
53915;SDS011;39827;49.652;18.770;2023-06-19T07:11:28;113.40;;;106.10;;
53915;SDS011;39827;49.652;18.770;2023-06-19T07:13:53;83.97;;;78.90;;
53915;SDS011;39827;49.652;18.770;2023-06-19T07:16:19;24.60;;;22.58;;
53915;SDS011;39827;49.652;18.770;2023-06-19T07:18:44;22.73;;;21.10;;
53915;SDS011;39827;49.652;18.770;2023-06-19T07:21:11;45.88;;;43.03;;
53915;SDS011;39827;49.652;18.770;2023-06-19T07:23:40;17.33;;;16.10;;
53915;SDS011;39827;49.652;18.770;2023-06-19T07:26:06;69.90;;;65.72;;
53915;SDS011;39827;49.652;18.770;2023-06-19T07:28:31;11.73;;;10.73;;
53915;SDS011;39827;49.652;18.770;2023-06-19T07:30:57;151.27;;;142.30;;
53915;SDS011;39827;49.652;18.770;2023-06-19T07:33:22;178.15;;;168.05;;
53915;SDS011;39827;49.652;18.770;2023-06-19T07:35:47;172.85;;;163.02;;
53915;SDS011;39827;49.652;18.770;2023-06-19T07:38:13;267.73;;;252.18;;
53915;SDS011;39827;49.652;18.770;2023-06-19T07:40:38;132.32;;;124.72;;
53915;SDS011;39827;49.652;18.770;2023-06-19T07:43:04;18.92;;;17.67;;
53915;SDS011;39827;49.652;18.770;2023-06-19T07:45:29;63.03;;;59.33;;
53915;SDS011;39827;49.652;18.770;2023-06-19T07:47:55;28.83;;;27.02;;
53915;SDS011;39827;49.652;18.770;2023-06-19T07:50:22;271.33;;;255.05;;
53915;SDS011;39827;49.652;18.770;2023-06-19T07:52:47;247.50;;;233.02;;
53915;SDS011;39827;49.652;18.770;2023-06-19T07:55:13;328.05;;;307.70;;
53915;SDS011;39827;49.652;18.770;2023-06-19T07:57:38;335.00;;;314.35;;
53915;SDS011;39827;49.652;18.770;2023-06-19T08:00:04;201.68;;;189.98;;
53915;SDS011;39827;49.652;18.770;2023-06-19T08:02:35;105.13;;;98.47;;
53915;SDS011;39827;49.652;18.770;2023-06-19T08:05:01;352.75;;;331.23;;
53915;SDS011;39827;49.652;18.770;2023-06-19T08:07:26;345.40;;;324.15;;
53915;SDS011;39827;49.652;18.770;2023-06-19T08:09:52;266.10;;;249.90;;
53915;SDS011;39827;49.652;18.770;2023-06-19T08:12:17;371.75;;;348.70;;
53915;SDS011;39827;49.652;18.770;2023-06-19T08:14:42;182.60;;;171.90;;
53915;SDS011;39827;49.652;18.770;2023-06-19T08:17:08;138.23;;;130.27;;
53915;SDS011;39827;49.652;18.770;2023-06-19T08:19:33;194.10;;;182.82;;
53915;SDS011;39827;49.652;18.770;2023-06-19T08:21:59;345.20;;;323.95;;
53915;SDS011;39827;49.652;18.770;2023-06-19T08:24:24;362.95;;;340.45;;
53915;SDS011;39827;49.652;18.770;2023-06-19T08:26:50;281.08;;;264.42;;
53915;SDS011;39827;49.652;18.770;2023-06-19T18:00:35;328.90;;;304.50;;
53915;SDS011;39827;49.652;18.770;2023-06-19T18:03:00;397.42;;;367.48;;
53915;SDS011;39827;49.652;18.770;2023-06-19T18:05:26;451.98;;;418.77;;
53915;SDS011;39827;49.652;18.770;2023-06-19T18:07:51;454.77;;;421.30;;
53915;SDS011;39827;49.652;18.770;2023-06-19T18:10:17;499.73;;;462.35;;
53915;SDS011;39827;49.652;18.770;2023-06-19T18:12:42;553.53;;;512.03;;
53915;SDS011;39827;49.652;18.770;2023-06-19T18:15:08;557.55;;;516.03;;
53915;SDS011;39827;49.652;18.770;2023-06-19T18:17:34;580.97;;;537.60;;
53915;SDS011;39827;49.652;18.770;2023-06-19T18:19:59;606.17;;;561.40;;
53915;SDS011;39827;49.652;18.770;2023-06-19T18:22:25;629.08;;;582.88;;
53915;SDS011;39827;49.652;18.770;2023-06-19T18:24:50;656.00;;;607.88;;
53915;SDS011;39827;49.652;18.770;2023-06-19T18:27:17;692.15;;;641.45;;
53915;SDS011;39827;49.652;18.770;2023-06-19T18:29:43;673.67;;;624.05;;
53915;SDS011;39827;49.652;18.770;2023-06-19T18:32:09;696.67;;;645.47;;
53915;SDS011;39827;49.652;18.770;2023-06-19T18:34:34;705.75;;;654.15;;
53915;SDS011;39827;49.652;18.770;2023-06-19T18:37:00;706.65;;;654.65;;
53915;SDS011;39827;49.652;18.770;2023-06-19T18:39:25;746.35;;;691.33;;
53915;SDS011;39827;49.652;18.770;2023-06-19T18:41:51;732.75;;;679.03;;
53915;SDS011;39827;49.652;18.770;2023-06-19T18:44:18;751.55;;;696.28;;
53915;SDS011;39827;49.652;18.770;2023-06-19T18:46:43;759.05;;;703.38;;
53915;SDS011;39827;49.652;18.770;2023-06-19T18:49:08;777.60;;;719.80;;
53915;SDS011;39827;49.652;18.770;2023-06-19T18:51:34;772.67;;;716.03;;
53915;SDS011;39827;49.652;18.770;2023-06-19T18:53:59;795.50;;;736.50;;
53915;SDS011;39827;49.652;18.770;2023-06-19T18:56:25;803.70;;;744.45;;
53915;SDS011;39827;49.652;18.770;2023-06-19T18:58:50;818.00;;;757.22;;
53915;SDS011;39827;49.652;18.770;2023-06-19T19:01:16;825.38;;;762.03;;
53915;SDS011;39827;49.652;18.770;2023-06-19T19:03:41;823.85;;;760.58;;
53915;SDS011;39827;49.652;18.770;2023-06-19T19:06:07;832.40;;;768.75;;
53915;SDS011;39827;49.652;18.770;2023-06-19T19:08:32;828.70;;;765.78;;
53915;SDS011;39827;49.652;18.770;2023-06-19T19:10:58;833.70;;;769.90;;
53915;SDS011;39827;49.652;18.770;2023-06-19T19:13:23;838.58;;;773.72;;
53915;SDS011;39827;49.652;18.770;2023-06-19T19:15:49;830.10;;;766.28;;
53915;SDS011;39827;49.652;18.770;2023-06-19T19:18:14;832.22;;;767.70;;
53915;SDS011;39827;49.652;18.770;2023-06-19T19:20:40;840.72;;;775.25;;
53915;SDS011;39827;49.652;18.770;2023-06-19T19:23:05;842.25;;;775.60;;
53915;SDS011;39827;49.652;18.770;2023-06-19T19:25:31;838.55;;;772.03;;
53915;SDS011;39827;49.652;18.770;2023-06-19T19:27:57;829.45;;;763.60;;
53915;SDS011;39827;49.652;18.770;2023-06-19T19:30:23;814.72;;;751.15;;
53915;SDS011;39827;49.652;18.770;2023-06-19T19:32:48;819.15;;;755.72;;
53915;SDS011;39827;49.652;18.770;2023-06-19T19:35:14;819.90;;;755.15;;
53915;SDS011;39827;49.652;18.770;2023-06-19T19:37:39;847.35;;;780.42;;
53915;SDS011;39827;49.652;18.770;2023-06-19T19:40:04;820.38;;;755.90;;
53915;SDS011;39827;49.652;18.770;2023-06-19T19:42:31;815.28;;;751.15;;
53915;SDS011;39827;49.652;18.770;2023-06-19T19:44:56;828.08;;;762.63;;
53915;SDS011;39827;49.652;18.770;2023-06-19T19:47:23;826.78;;;761.95;;
53915;SDS011;39827;49.652;18.770;2023-06-19T19:49:49;824.70;;;760.47;;
53915;SDS011;39827;49.652;18.770;2023-06-19T19:52:16;850.28;;;783.53;;
53915;SDS011;39827;49.652;18.770;2023-06-19T19:54:41;833.75;;;768.22;;
53915;SDS011;39827;49.652;18.770;2023-06-19T19:57:07;827.10;;;761.40;;
53915;SDS011;39827;49.652;18.770;2023-06-19T19:59:32;840.33;;;772.97;;
53915;SDS011;39827;49.652;18.770;2023-06-19T20:01:58;843.03;;;776.13;;
53915;SDS011;39827;49.652;18.770;2023-06-19T20:04:24;831.30;;;765.47;;
53915;SDS011;39827;49.652;18.770;2023-06-19T20:06:49;837.40;;;771.05;;
53915;SDS011;39827;49.652;18.770;2023-06-19T20:09:15;835.50;;;769.88;;
53915;SDS011;39827;49.652;18.770;2023-06-19T20:11:40;848.88;;;782.50;;
53915;SDS011;39827;49.652;18.770;2023-06-19T20:14:06;843.22;;;776.53;;
53915;SDS011;39827;49.652;18.770;2023-06-19T20:16:33;844.42;;;777.58;;
53915;SDS011;39827;49.652;18.770;2023-06-19T20:18:58;835.25;;;768.70;;
53915;SDS011;39827;49.652;18.770;2023-06-19T20:21:25;849.75;;;782.67;;
53915;SDS011;39827;49.652;18.770;2023-06-19T20:23:52;861.47;;;793.72;;
53915;SDS011;39827;49.652;18.770;2023-06-19T20:26:18;872.55;;;804.35;;
53915;SDS011;39827;49.652;18.770;2023-06-19T20:28:43;879.45;;;809.30;;
53915;SDS011;39827;49.652;18.770;2023-06-19T20:31:09;877.50;;;806.72;;
53915;SDS011;39827;49.652;18.770;2023-06-19T20:33:34;878.85;;;807.35;;
53915;SDS011;39827;49.652;18.770;2023-06-19T20:36:00;843.05;;;774.92;;
53915;SDS011;39827;49.652;18.770;2023-06-19T20:38:28;844.05;;;775.75;;
53915;SDS011;39827;49.652;18.770;2023-06-19T20:40:54;882.30;;;810.70;;
53915;SDS011;39827;49.652;18.770;2023-06-19T20:43:20;901.53;;;828.15;;
53915;SDS011;39827;49.652;18.770;2023-06-19T20:45:45;911.78;;;836.00;;
53915;SDS011;39827;49.652;18.770;2023-06-19T20:48:11;881.95;;;809.30;;
53915;SDS011;39827;49.652;18.770;2023-06-19T20:50:36;920.35;;;843.85;;
53915;SDS011;39827;49.652;18.770;2023-06-19T20:53:02;948.08;;;868.80;;
53915;SDS011;39827;49.652;18.770;2023-06-19T20:55:27;886.42;;;813.67;;
53915;SDS011;39827;49.652;18.770;2023-06-19T20:57:53;927.42;;;850.00;;
53915;SDS011;39827;49.652;18.770;2023-06-19T21:00:18;865.17;;;794.33;;
53915;SDS011;39827;49.652;18.770;2023-06-19T21:02:44;887.67;;;813.75;;
53915;SDS011;39827;49.652;18.770;2023-06-19T21:05:14;916.95;;;840.42;;
53915;SDS011;39827;49.652;18.770;2023-06-19T21:07:43;890.55;;;817.33;;
53915;SDS011;39827;49.652;18.770;2023-06-19T21:10:10;907.63;;;831.67;;
53915;SDS011;39827;49.652;18.770;2023-06-19T21:12:36;913.20;;;836.55;;
53915;SDS011;39827;49.652;18.770;2023-06-19T21:15:01;958.15;;;875.90;;
53915;SDS011;39827;49.652;18.770;2023-06-19T21:17:27;961.53;;;879.92;;
53915;SDS011;39827;49.652;18.770;2023-06-19T21:19:53;909.88;;;833.78;;
53915;SDS011;39827;49.652;18.770;2023-06-19T21:22:18;909.47;;;833.22;;
53915;SDS011;39827;49.652;18.770;2023-06-19T21:24:44;883.60;;;810.35;;
53915;SDS011;39827;49.652;18.770;2023-06-19T21:27:09;919.53;;;841.80;;
53915;SDS011;39827;49.652;18.770;2023-06-19T21:29:34;912.33;;;835.28;;
53915;SDS011;39827;49.652;18.770;2023-06-19T21:32:02;928.75;;;849.47;;
53915;SDS011;39827;49.652;18.770;2023-06-19T21:34:31;932.30;;;853.25;;
53915;SDS011;39827;49.652;18.770;2023-06-19T21:36:57;868.58;;;796.22;;
53915;SDS011;39827;49.652;18.770;2023-06-19T21:39:22;925.17;;;846.78;;
53915;SDS011;39827;49.652;18.770;2023-06-19T21:41:48;908.00;;;831.30;;
53915;SDS011;39827;49.652;18.770;2023-06-19T21:44:13;904.03;;;828.55;;
53915;SDS011;39827;49.652;18.770;2023-06-19T21:46:39;924.60;;;846.88;;
53915;SDS011;39827;49.652;18.770;2023-06-19T21:49:04;848.70;;;779.13;;
53915;SDS011;39827;49.652;18.770;2023-06-19T21:51:31;859.35;;;788.88;;
53915;SDS011;39827;49.652;18.770;2023-06-19T21:53:58;915.75;;;838.67;;
53915;SDS011;39827;49.652;18.770;2023-06-19T21:56:24;897.08;;;822.28;;
53915;SDS011;39827;49.652;18.770;2023-06-19T21:58:49;887.55;;;813.88;;
53915;SDS011;39827;49.652;18.770;2023-06-19T22:01:15;929.92;;;851.00;;
53915;SDS011;39827;49.652;18.770;2023-06-19T22:03:40;945.30;;;864.55;;
53915;SDS011;39827;49.652;18.770;2023-06-19T22:06:06;926.75;;;848.85;;
53915;SDS011;39827;49.652;18.770;2023-06-19T22:08:31;891.95;;;817.35;;
53915;SDS011;39827;49.652;18.770;2023-06-19T22:10:57;918.38;;;840.83;;
53915;SDS011;39827;49.652;18.770;2023-06-19T22:13:23;905.25;;;830.20;;
53915;SDS011;39827;49.652;18.770;2023-06-19T22:15:48;891.33;;;817.03;;
53915;SDS011;39827;49.652;18.770;2023-06-19T22:18:15;884.55;;;811.25;;
53915;SDS011;39827;49.652;18.770;2023-06-19T22:20:41;943.58;;;862.63;;
53915;SDS011;39827;49.652;18.770;2023-06-19T22:23:07;904.83;;;829.30;;
53915;SDS011;39827;49.652;18.770;2023-06-19T22:25:32;871.40;;;799.55;;
53915;SDS011;39827;49.652;18.770;2023-06-19T22:27:58;891.20;;;817.60;;
53915;SDS011;39827;49.652;18.770;2023-06-19T22:30:23;918.38;;;841.00;;
53915;SDS011;39827;49.652;18.770;2023-06-19T22:32:49;933.75;;;854.70;;
53915;SDS011;39827;49.652;18.770;2023-06-19T22:35:14;891.70;;;817.70;;
53915;SDS011;39827;49.652;18.770;2023-06-19T22:37:39;919.55;;;841.42;;
53915;SDS011;39827;49.652;18.770;2023-06-19T22:40:05;901.65;;;825.30;;
53915;SDS011;39827;49.652;18.770;2023-06-19T22:42:32;920.75;;;842.78;;
53915;SDS011;39827;49.652;18.770;2023-06-19T22:44:58;966.35;;;881.97;;
53915;SDS011;39827;49.652;18.770;2023-06-19T22:47:23;910.17;;;832.13;;
53915;SDS011;39827;49.652;18.770;2023-06-19T22:49:49;913.05;;;835.17;;
53915;SDS011;39827;49.652;18.770;2023-06-19T22:52:14;938.03;;;857.03;;
53915;SDS011;39827;49.652;18.770;2023-06-19T22:54:40;928.28;;;848.75;;
53915;SDS011;39827;49.652;18.770;2023-06-19T22:57:05;935.88;;;856.05;;
53915;SDS011;39827;49.652;18.770;2023-06-19T22:59:31;909.83;;;832.85;;
53915;SDS011;39827;49.652;18.770;2023-06-19T23:01:56;905.70;;;828.53;;
53915;SDS011;39827;49.652;18.770;2023-06-19T23:04:22;843.25;;;773.45;;
53915;SDS011;39827;49.652;18.770;2023-06-19T23:06:47;877.03;;;803.53;;
53915;SDS011;39827;49.652;18.770;2023-06-19T23:09:15;896.38;;;820.88;;